»·PEaware :: C-GLGA KAVX-KSAN

C-GLGA :: KAVX-KSAN

FLIGHT INFORMATION

Flight Status: Arrived
Operator: Privately registered:
Canada
More flights under this callsign
Pilot: Matt G. (17748)
Aircraft: CESSNA 208 CARAVAN
(C208)
More flights by this aircraft type
Origin: KAVX Catalina
United States
Destination: KSAN San Diego Intl-Lindbergh
United States
More flights between these airports :: More routes between these airports
Route: SXC V208 OCN V23 MZB
File this flight plan on PilotEdge
Remarks: TEC CSTN56 I-8 Rating
Altitude:
(Current/Filed)
5,000ft
Speed:
(Current/Filed)
150kts
Departed: 10-Jan-18 07:07 PM
Arrived: 10-Jan-18 07:54 PM
Distance/Time
Traveled:
74nm/0:47
Distance/Time
To Go:
Arrived

Flight Plot

Page will automatically refresh every two minutes.


Map Options




Map Legend


Flown Route
Filed Route
Departure Airport
Arrival Airport
Navaid (VOR, NDB)
Fix

Horizontal Profiles

Position Reports

Time Latitude Longitude Heading Altitude Ground
Speed
10-Jan-18 18:55 33.403452 -118.415222 324 1607ft 0kts
10-Jan-18 18:56 33.403452 -118.415222 324 1607ft 0kts
10-Jan-18 18:57 33.403452 -118.415222 324 1607ft 0kts
10-Jan-18 18:58 33.403452 -118.415222 324 1607ft 0kts
10-Jan-18 18:59 33.403452 -118.415222 324 1607ft 0kts
10-Jan-18 19:00 33.403452 -118.415222 324 1607ft 0kts
10-Jan-18 19:01 33.403452 -118.415222 324 1607ft 0kts
10-Jan-18 19:02 33.403452 -118.415222 324 1607ft 0kts
10-Jan-18 19:03 33.403452 -118.415222 324 1607ft 0kts
10-Jan-18 19:04 33.403452 -118.415222 324 1607ft 0kts
10-Jan-18 19:05 33.403452 -118.415222 324 1607ft 0kts
10-Jan-18 19:06 33.403452 -118.415222 324 1607ft 0kts
10-Jan-18 19:07 33.403452 -118.415222 324 1607ft 0kts
10-Jan-18 19:08 33.403452 -118.415222 324 1607ft 0kts
10-Jan-18 19:09 33.403452 -118.415222 324 1607ft 0kts
10-Jan-18 19:10 33.404073 -118.414999 0 1607ft 4kts
10-Jan-18 19:11 33.406161 -118.413141 54 1607ft 17kts
10-Jan-18 19:12 33.407184 -118.411556 349 1607ft 7kts
10-Jan-18 19:13 33.395438 -118.432695 235 2224ft 130kts
10-Jan-18 19:14 33.371627 -118.434059 74 3818ft 140kts
10-Jan-18 19:15 33.369740 -118.388773 85 4744ft 145kts
10-Jan-18 19:16 33.363321 -118.336271 98 5010ft 171kts
10-Jan-18 19:17 33.356786 -118.281761 92 4996ft 163kts
10-Jan-18 19:18 33.349644 -118.227677 92 4992ft 170kts
10-Jan-18 19:19 33.342038 -118.170041 93 4989ft 178kts
10-Jan-18 19:20 33.334153 -118.111310 93 4990ft 178kts
10-Jan-18 19:21 33.326361 -118.052674 93 4990ft 178kts
10-Jan-18 19:22 33.318614 -117.994057 94 4991ft 178kts
10-Jan-18 19:23 33.311425 -117.935336 94 4989ft 178kts
10-Jan-18 19:24 33.303361 -117.876992 95 4999ft 178kts
10-Jan-18 19:25 33.295121 -117.818445 95 5003ft 178kts
10-Jan-18 19:26 33.285834 -117.760226 100 5004ft 179kts
10-Jan-18 19:27 33.274170 -117.702402 95 5005ft 178kts
10-Jan-18 19:28 33.267030 -117.643728 93 5006ft 178kts
10-Jan-18 19:29 33.260534 -117.586084 93 5006ft 178kts
10-Jan-18 19:30 33.253561 -117.527743 93 5080ft 176kts
10-Jan-18 19:31 33.246722 -117.469343 93 5080ft 178kts
10-Jan-18 19:32 33.229190 -117.415733 132 5087ft 183kts
10-Jan-18 19:33 33.183211 -117.391239 163 5081ft 184kts
10-Jan-18 19:34 33.134849 -117.371234 161 5080ft 184kts
10-Jan-18 19:35 33.087246 -117.351163 161 5080ft 184kts
10-Jan-18 19:36 33.039162 -117.330372 161 5080ft 184kts
10-Jan-18 19:37 32.991046 -117.309685 162 5080ft 184kts
10-Jan-18 19:38 32.951195 -117.294690 163 5080ft 184kts
10-Jan-18 19:39 32.926735 -117.254205 111 5067ft 128kts
10-Jan-18 19:40 32.909856 -117.211409 111 5087ft 155kts
10-Jan-18 19:41 32.891625 -117.164429 111 5082ft 155kts
10-Jan-18 19:42 32.874242 -117.119188 111 5084ft 155kts
10-Jan-18 19:43 32.856321 -117.072516 111 5087ft 154kts
10-Jan-18 19:44 32.838611 -117.026082 111 5086ft 153kts
10-Jan-18 19:45 32.820980 -116.979652 111 5099ft 154kts
10-Jan-18 19:46 32.803413 -116.933169 111 5094ft 154kts
10-Jan-18 19:47 32.785846 -116.886686 111 5087ft 154kts
10-Jan-18 19:48 32.762100 -116.846958 176 4811ft 156kts
10-Jan-18 19:49 32.722497 -116.854259 191 4122ft 136kts
10-Jan-18 19:50 32.685166 -116.862478 191 4086ft 146kts
10-Jan-18 19:51 32.665012 -116.898986 252 4078ft 135kts
10-Jan-18 19:52 32.671519 -116.938249 289 4064ft 111kts
10-Jan-18 19:53 32.682108 -116.975605 291 3676ft 115kts
10-Jan-18 19:54 32.691680 -117.014336 286 3045ft 129kts
10-Jan-18 19:55 32.700546 -117.053767 286 2622ft 119kts
10-Jan-18 19:56 32.709257 -117.088908 286 2077ft 107kts
10-Jan-18 19:57 32.717757 -117.123821 284 1370ft 113kts
10-Jan-18 19:58 32.725611 -117.156772 282 579ft 92kts
10-Jan-18 19:59 32.732059 -117.183539 284 35ft 83kts
10-Jan-18 20:00 32.732489 -117.188527 197 20ft 0kts
10-Jan-18 20:01 32.732322 -117.188628 235 20ft 6kts
10-Jan-18 20:02 32.732875 -117.191152 285 20ft 5kts
10-Jan-18 20:03 32.732485 -117.192306 200 20ft 0kts

Navigation Log

Ident Type
1. KAVX Airport
2. SXC Navaid
3. AVOLS Fix
4. PACIF Fix
5. HUBRD Fix
6. OCN Navaid
7. HURSI Fix
8. CARIF Fix
9. MZB Navaid
10. KSAN Airport